Ohio State University Airport
KOSU : rendu visible

Aérodrome :











RETROUVEZ-NOUS SUR...

 
LOGIN :

S'inscrire | Disclaimer

   EN    FR    IT 

 









Légende :    VFR   VFR Marginal   IFR   IFR Intensif   IFR Très Intensif
Visi : 
Plafond : 
>= 8 km
>= 3000ft
5 à 8 km
1000 à 3000 ft
1500m à 5 km
500 à 1000 ft
800 à 1500m
200 à 500 ft
< 800m
< 200 ft
Symboles :   Orages  Brouillard  Fortes neiges  Fortes précipitations  Vent > 20 kt






- Altitude de l'aérodrome : 905 ft


KOSU - Ohio State University

DERNIER METAR :
  • 300153Z 35003KT 10SM CLR 16/14 A3001 RMK AO2 SLP159 T01610144

METARs EXPIRÉS :
  • 300053Z 32004KT 10SM BKN110 17/14 A3000 RMK AO2 SLP155 T01720144
  • 292353Z 33006KT 10SM FEW024 BKN085 OVC110 19/16 A2999 RMK AO2 SLP150 60023 T01890156 10261 20178 53015
  • 292300Z 33010KT 10SM SCT018 BKN070 BKN090 19/16 A2996 RMK AO2 T01940161

TAF N/A
FIR KZID / Amérique du Nord



MET'MAP, la Météo Aéronautique d'un coup d'oeil ! - Copyright ORBIFLY Décembre 2007 - Disclaimer

ORBIFLY MET'MAP TEAM :

Programmation & Développement : Alexandra Zaïnal
Sur une idée originale de : Baudouin d'Aumeries
Assistance à la programmation : Marc-Olivier Méhu
Soutien technique & logistique : Manuel Goepfert

Contact : metmap@orbifly.com




SOURCES & CREDITS :

   NOAA       Earth
Advisory